Sv.ap.joan — LZG2225 — position and weather

sailwx.info

Track history (hours):
 
Tides and Currents Weather Stations Pressure Air Temp Water Temp Dewpoint Dewpoint Depression Visibility Wind Speed Wind Dir Waves Ship Positions

Sv.ap.joan

Last reported at 2017-Nov-24 20:16 UTC. Time now 2017-Nov-24 20:39 UTC.
Position N 45°13' E 019°49'.

Length 80 m; draft 2.4 m.

Type: Cargo ship. MMSI: 207072225.

Date/timePositionNaut miles runAvg speedWind from/ knotsBaromVisibWave heightAir tempDewpointWater temp
2017-Nov-24 20:16N 45°13' E 019°49'0 0.0
2017-Nov-24 19:46N 45°13' E 019°49'0 0.0
2017-Nov-24 19:25N 45°13' E 019°49'0 0.0
2017-Nov-24 18:40N 45°13' E 019°49'0 0.0
2017-Nov-24 17:49N 45°13' E 019°49'0 0.0
2017-Nov-24 17:30N 45°13' E 019°49'0 0.0
2017-Nov-24 17:01N 45°13' E 019°49'1 2.6
2017-Nov-24 16:26N 45°14' E 019°51'1 2.8
2017-Nov-24 16:00N 45°15' E 019°51'0 0.4
2017-Nov-24 15:07N 45°16' E 019°51'0 0.0
2017-Nov-24 15:00N 45°16' E 019°51'1 0.7
2017-Nov-24 14:05N 45°16' E 019°52'0 0.9
2017-Nov-24 14:01N 45°16' E 019°52'1 0.7
2017-Nov-24 13:15N 45°16' E 019°51'0 0.0
2017-Nov-24 12:59N 45°16' E 019°51'0 0.0
2017-Nov-24 12:27N 45°16' E 019°51'0 0.0
2017-Nov-24 11:59N 45°16' E 019°51'0 0.0
2017-Nov-24 11:28N 45°16' E 019°51'0 0.4
2017-Nov-24 11:01N 45°16' E 019°52'1 1.4
2017-Nov-24 10:29N 45°15' E 019°51'0 0.0
2017-Nov-24 10:00N 45°15' E 019°51'0 0.0
2017-Nov-24 09:30N 45°15' E 019°51'2 3.3
2017-Nov-24 08:58N 45°15' E 019°54'2 5.2
2017-Nov-24 08:30N 45°13' E 019°56'3 5.4
2017-Nov-24 08:01N 45°11' E 019°58'3 5.5
2017-Nov-24 07:30N 45°10' E 020°02'3 5.0
2017-Nov-24 06:57N 45°10' E 020°06'3 5.0
2017-Nov-24 06:25N 45°11' E 020°09'2 4.9
2017-Nov-24 06:00N 45°11' E 020°12'3 5.3
2017-Nov-24 05:30N 45°09' E 020°15'2 0.2
2017-Nov-23 15:41N 45°07' E 020°17'1 4.6
2017-Nov-23 15:30N 45°06' E 020°18'3 5.1
2017-Nov-23 14:59N 45°04' E 020°20'3 5.3
2017-Nov-23 14:30N 45°02' E 020°22'2 4.3
2017-Nov-23 14:00N 45°00' E 020°21'3 5.1
2017-Nov-23 13:30N 44°59' E 020°17'2 3.5
2017-Nov-23 13:00N 44°57' E 020°18'1 2.2
2017-Nov-23 12:30N 44°56' E 020°18'2 4.9
2017-Nov-23 12:00N 44°54' E 020°21'3 5.2
2017-Nov-23 11:30N 44°52' E 020°22'3 5.0
2017-Nov-23 11:00N 44°51' E 020°25'3 5.2
2017-Nov-23 10:30N 44°50' E 020°29'3 5.3
2017-Nov-23 10:00N 44°50' E 020°32'3 5.4
2017-Nov-23 09:30N 44°51' E 020°36'2 4.9
2017-Nov-23 09:00N 44°50' E 020°39'2 4.8
2017-Nov-23 08:30N 44°48' E 020°38'3 5.3
2017-Nov-23 08:00N 44°45' E 020°39'4 5.3
2017-Nov-23 07:17N 44°42' E 020°42'4 5.2
2017-Nov-23 06:26N 44°40' E 020°47'2 5.1
2017-Nov-23 06:00N 44°39' E 020°50'3 5.3
2017-Nov-23 05:28N 44°40' E 020°54'  
2017-Nov-20 00:28N 44°32' E 022°39'0 0.0
2017-Nov-19 23:58N 44°32' E 022°39'0 0.0
2017-Nov-19 23:28N 44°32' E 022°39'0 0.0
2017-Nov-19 22:58N 44°32' E 022°39'0 0.0
2017-Nov-19 22:28N 44°32' E 022°39'0 0.0
2017-Nov-19 21:58N 44°32' E 022°39'0 0.0
2017-Nov-19 21:28N 44°32' E 022°39'0 0.0
2017-Nov-19 20:58N 44°32' E 022°39'0 0.0
2017-Nov-19 20:28N 44°32' E 022°39'0 0.0
2017-Nov-19 19:58N 44°32' E 022°39'0 0.0
2017-Nov-19 19:28N 44°32' E 022°39'0 0.0
2017-Nov-19 18:58N 44°32' E 022°39'0 0.0
2017-Nov-19 18:28N 44°32' E 022°39'0 0.0
2017-Nov-19 17:58N 44°32' E 022°39'0 0.0
2017-Nov-19 17:28N 44°32' E 022°39'0 0.3
2017-Nov-19 17:00N 44°32' E 022°39'2 4.7
2017-Nov-19 16:30N 44°33' E 022°36'3 5.1
2017-Nov-19 16:00N 44°31' E 022°34'3 5.5
2017-Nov-19 15:30N 44°29' E 022°32'3 5.8
2017-Nov-19 15:00N 44°29' E 022°28'3 5.2
2017-Nov-19 14:30N 44°26' E 022°29'3 5.8
2017-Nov-19 14:00N 44°23' E 022°30'3 5.7
2017-Nov-19 13:30N 44°21' E 022°31'2 5.0
2017-Nov-19 13:00N 44°19' E 022°33'1 1.2
2017-Nov-19 12:30N 44°18' E 022°34'1 2.2
2017-Nov-19 12:00N 44°18' E 022°35'2 4.4
2017-Nov-19 11:30N 44°17' E 022°38'2 4.7
2017-Nov-19 11:00N 44°16' E 022°41'2 4.6
2017-Nov-19 10:30N 44°14' E 022°40'2 3.8
2017-Nov-19 10:00N 44°12' E 022°42'2 4.5
2017-Nov-19 09:30N 44°12' E 022°45'2 4.5
2017-Nov-19 09:00N 44°10' E 022°47'3 5.2
2017-Nov-19 08:30N 44°09' E 022°50'3 5.0
2017-Nov-19 08:00N 44°07' E 022°53'2 4.5
2017-Nov-19 07:30N 44°06' E 022°56'2 4.6
2017-Nov-19 07:00N 44°06' E 022°59'2 4.8
2017-Nov-19 06:30N 44°05' E 023°02'2 4.2
2017-Nov-19 06:00N 44°03' E 023°02'2 4.6
2017-Nov-19 05:30N 44°01' E 023°01'1 2.7
2017-Nov-19 05:00N 44°01' E 022°59'0 0.0
2017-Nov-19 04:28N 44°01' E 022°59'0 0.0
2017-Nov-19 03:58N 44°01' E 022°59'0 0.0
2017-Nov-19 03:25N 44°01' E 022°59'0 0.0
2017-Nov-19 02:52N 44°01' E 022°59'0 0.0
2017-Nov-19 02:28N 44°01' E 022°59'0 0.0
2017-Nov-19 01:58N 44°01' E 022°59'0 0.0
2017-Nov-19 01:28N 44°01' E 022°59'0 0.0
2017-Nov-19 00:37N 44°01' E 022°59'0 0.0
2017-Nov-19 00:28N 44°01' E 022°59'0 0.0
2017-Nov-18 23:43N 44°01' E 022°59'0 0.0
2017-Nov-18 23:19N 44°01' E 022°59'0 0.0
2017-Nov-18 22:58N 44°01' E 022°59'0 0.0
2017-Nov-18 22:28N 44°01' E 022°59'0 0.0
2017-Nov-18 21:55N 44°01' E 022°59'0 0.0
2017-Nov-18 21:25N 44°01' E 022°59'0 0.0
2017-Nov-18 20:58N 44°01' E 022°59'0 0.0
2017-Nov-18 20:28N 44°01' E 022°59'0 0.0
2017-Nov-18 19:58N 44°01' E 022°59'0 0.0
2017-Nov-18 19:28N 44°01' E 022°59'0 0.0
2017-Nov-18 18:58N 44°01' E 022°59'0 0.0
2017-Nov-18 18:25N 44°01' E 022°59'0 0.0
2017-Nov-18 17:58N 44°01' E 022°59'0 0.0
2017-Nov-18 17:28N 44°01' E 022°59'0 0.0
2017-Nov-18 16:58N 44°01' E 022°59'0 0.0
2017-Nov-18 16:22N 44°01' E 022°59'0 0.0
2017-Nov-18 16:00N 44°01' E 022°59'2 4.3
2017-Nov-18 15:30N 44°00' E 022°56'2 4.7
2017-Nov-18 15:00N 43°59' E 022°53'2 4.7
2017-Nov-18 14:30N 43°57' E 022°52'2 5.0
2017-Nov-18 14:00N 43°55' E 022°51'2 4.8
2017-Nov-18 13:31N 43°52' E 022°50'3 5.1
2017-Nov-18 13:00N 43°50' E 022°52'3 5.2
2017-Nov-18 12:30N 43°49' E 022°56'2 5.0
2017-Nov-18 12:00N 43°49' E 022°59'3 4.9
2017-Nov-18 11:24N 43°48' E 023°03'3 4.8
2017-Nov-18 10:51N 43°48' E 023°07'3 4.6
2017-Nov-18 10:17N 43°49' E 023°10'2 5.1
2017-Nov-18 09:59N 43°50' E 023°12'2 5.0
2017-Nov-18 09:30N 43°51' E 023°15'3 5.0
2017-Nov-18 08:58N 43°51' E 023°19'  
Track history (hours):
 
Tides and Currents Weather Stations Pressure Air Temp Water Temp Dewpoint Dewpoint Depression Visibility Wind Speed Wind Dir Waves Ship Positions

Sv.ap.joan

Last reported at 2017-Nov-24 20:16 UTC. Time now 2017-Nov-24 20:39 UTC.
Position N 45°13' E 019°49'.

Length 80 m; draft 2.4 m.

Type: Cargo ship. MMSI: 207072225.

Date/timePositionNaut miles runAvg speedWind from/ knotsBaromVisibWave heightAir tempDewpointWater temp
2017-Nov-24 20:16N 45°13' E 019°49'0 0.0
2017-Nov-24 19:46N 45°13' E 019°49'0 0.0
2017-Nov-24 19:25N 45°13' E 019°49'0 0.0
2017-Nov-24 18:40N 45°13' E 019°49'0 0.0
2017-Nov-24 17:49N 45°13' E 019°49'0 0.0
2017-Nov-24 17:30N 45°13' E 019°49'0 0.0
2017-Nov-24 17:01N 45°13' E 019°49'1 2.6
2017-Nov-24 16:26N 45°14' E 019°51'1 2.8
2017-Nov-24 16:00N 45°15' E 019°51'0 0.4
2017-Nov-24 15:07N 45°16' E 019°51'0 0.0
2017-Nov-24 15:00N 45°16' E 019°51'1 0.7
2017-Nov-24 14:05N 45°16' E 019°52'0 0.9
2017-Nov-24 14:01N 45°16' E 019°52'1 0.7
2017-Nov-24 13:15N 45°16' E 019°51'0 0.0
2017-Nov-24 12:59N 45°16' E 019°51'0 0.0
2017-Nov-24 12:27N 45°16' E 019°51'0 0.0
2017-Nov-24 11:59N 45°16' E 019°51'0 0.0
2017-Nov-24 11:28N 45°16' E 019°51'0 0.4
2017-Nov-24 11:01N 45°16' E 019°52'1 1.4
2017-Nov-24 10:29N 45°15' E 019°51'0 0.0
2017-Nov-24 10:00N 45°15' E 019°51'0 0.0
2017-Nov-24 09:30N 45°15' E 019°51'2 3.3
2017-Nov-24 08:58N 45°15' E 019°54'2 5.2
2017-Nov-24 08:30N 45°13' E 019°56'3 5.4
2017-Nov-24 08:01N 45°11' E 019°58'3 5.5
2017-Nov-24 07:30N 45°10' E 020°02'3 5.0
2017-Nov-24 06:57N 45°10' E 020°06'3 5.0
2017-Nov-24 06:25N 45°11' E 020°09'2 4.9
2017-Nov-24 06:00N 45°11' E 020°12'3 5.3
2017-Nov-24 05:30N 45°09' E 020°15'2 0.2
2017-Nov-23 15:41N 45°07' E 020°17'1 4.6
2017-Nov-23 15:30N 45°06' E 020°18'3 5.1
2017-Nov-23 14:59N 45°04' E 020°20'3 5.3
2017-Nov-23 14:30N 45°02' E 020°22'2 4.3
2017-Nov-23 14:00N 45°00' E 020°21'3 5.1
2017-Nov-23 13:30N 44°59' E 020°17'2 3.5
2017-Nov-23 13:00N 44°57' E 020°18'1 2.2
2017-Nov-23 12:30N 44°56' E 020°18'2 4.9
2017-Nov-23 12:00N 44°54' E 020°21'3 5.2
2017-Nov-23 11:30N 44°52' E 020°22'3 5.0
2017-Nov-23 11:00N 44°51' E 020°25'3 5.2
2017-Nov-23 10:30N 44°50' E 020°29'3 5.3
2017-Nov-23 10:00N 44°50' E 020°32'3 5.4
2017-Nov-23 09:30N 44°51' E 020°36'2 4.9
2017-Nov-23 09:00N 44°50' E 020°39'2 4.8
2017-Nov-23 08:30N 44°48' E 020°38'3 5.3
2017-Nov-23 08:00N 44°45' E 020°39'4 5.3
2017-Nov-23 07:17N 44°42' E 020°42'4 5.2
2017-Nov-23 06:26N 44°40' E 020°47'2 5.1
2017-Nov-23 06:00N 44°39' E 020°50'3 5.3
2017-Nov-23 05:28N 44°40' E 020°54'  
2017-Nov-20 00:28N 44°32' E 022°39'0 0.0
2017-Nov-19 23:58N 44°32' E 022°39'0 0.0
2017-Nov-19 23:28N 44°32' E 022°39'0 0.0
2017-Nov-19 22:58N 44°32' E 022°39'0 0.0
2017-Nov-19 22:28N 44°32' E 022°39'0 0.0
2017-Nov-19 21:58N 44°32' E 022°39'0 0.0
2017-Nov-19 21:28N 44°32' E 022°39'0 0.0
2017-Nov-19 20:58N 44°32' E 022°39'0 0.0
2017-Nov-19 20:28N 44°32' E 022°39'0 0.0
2017-Nov-19 19:58N 44°32' E 022°39'0 0.0
2017-Nov-19 19:28N 44°32' E 022°39'0 0.0
2017-Nov-19 18:58N 44°32' E 022°39'0 0.0
2017-Nov-19 18:28N 44°32' E 022°39'0 0.0
2017-Nov-19 17:58N 44°32' E 022°39'0 0.0
2017-Nov-19 17:28N 44°32' E 022°39'0 0.3
2017-Nov-19 17:00N 44°32' E 022°39'2 4.7
2017-Nov-19 16:30N 44°33' E 022°36'3 5.1
2017-Nov-19 16:00N 44°31' E 022°34'3 5.5
2017-Nov-19 15:30N 44°29' E 022°32'3 5.8
2017-Nov-19 15:00N 44°29' E 022°28'3 5.2
2017-Nov-19 14:30N 44°26' E 022°29'3 5.8
2017-Nov-19 14:00N 44°23' E 022°30'3 5.7
2017-Nov-19 13:30N 44°21' E 022°31'2 5.0
2017-Nov-19 13:00N 44°19' E 022°33'1 1.2
2017-Nov-19 12:30N 44°18' E 022°34'1 2.2
2017-Nov-19 12:00N 44°18' E 022°35'2 4.4
2017-Nov-19 11:30N 44°17' E 022°38'2 4.7
2017-Nov-19 11:00N 44°16' E 022°41'2 4.6
2017-Nov-19 10:30N 44°14' E 022°40'2 3.8
2017-Nov-19 10:00N 44°12' E 022°42'2 4.5
2017-Nov-19 09:30N 44°12' E 022°45'2 4.5
2017-Nov-19 09:00N 44°10' E 022°47'3 5.2
2017-Nov-19 08:30N 44°09' E 022°50'3 5.0
2017-Nov-19 08:00N 44°07' E 022°53'2 4.5
2017-Nov-19 07:30N 44°06' E 022°56'2 4.6
2017-Nov-19 07:00N 44°06' E 022°59'2 4.8
2017-Nov-19 06:30N 44°05' E 023°02'2 4.2
2017-Nov-19 06:00N 44°03' E 023°02'2 4.6
2017-Nov-19 05:30N 44°01' E 023°01'1 2.7
2017-Nov-19 05:00N 44°01' E 022°59'0 0.0
2017-Nov-19 04:28N 44°01' E 022°59'0 0.0
2017-Nov-19 03:58N 44°01' E 022°59'0 0.0
2017-Nov-19 03:25N 44°01' E 022°59'0 0.0
2017-Nov-19 02:52N 44°01' E 022°59'0 0.0
2017-Nov-19 02:28N 44°01' E 022°59'0 0.0
2017-Nov-19 01:58N 44°01' E 022°59'0 0.0
2017-Nov-19 01:28N 44°01' E 022°59'0 0.0
2017-Nov-19 00:37N 44°01' E 022°59'0 0.0
2017-Nov-19 00:28N 44°01' E 022°59'0 0.0
2017-Nov-18 23:43N 44°01' E 022°59'0 0.0
2017-Nov-18 23:19N 44°01' E 022°59'0 0.0
2017-Nov-18 22:58N 44°01' E 022°59'0 0.0
2017-Nov-18 22:28N 44°01' E 022°59'0 0.0
2017-Nov-18 21:55N 44°01' E 022°59'0 0.0
2017-Nov-18 21:25N 44°01' E 022°59'0 0.0
2017-Nov-18 20:58N 44°01' E 022°59'0 0.0
2017-Nov-18 20:28N 44°01' E 022°59'0 0.0
2017-Nov-18 19:58N 44°01' E 022°59'0 0.0
2017-Nov-18 19:28N 44°01' E 022°59'0 0.0
2017-Nov-18 18:58N 44°01' E 022°59'0 0.0
2017-Nov-18 18:25N 44°01' E 022°59'0 0.0
2017-Nov-18 17:58N 44°01' E 022°59'0 0.0
2017-Nov-18 17:28N 44°01' E 022°59'0 0.0
2017-Nov-18 16:58N 44°01' E 022°59'0 0.0
2017-Nov-18 16:22N 44°01' E 022°59'0 0.0
2017-Nov-18 16:00N 44°01' E 022°59'2 4.3
2017-Nov-18 15:30N 44°00' E 022°56'2 4.7
2017-Nov-18 15:00N 43°59' E 022°53'2 4.7
2017-Nov-18 14:30N 43°57' E 022°52'2 5.0
2017-Nov-18 14:00N 43°55' E 022°51'2 4.8
2017-Nov-18 13:31N 43°52' E 022°50'3 5.1
2017-Nov-18 13:00N 43°50' E 022°52'3 5.2
2017-Nov-18 12:30N 43°49' E 022°56'2 5.0
2017-Nov-18 12:00N 43°49' E 022°59'3 4.9
2017-Nov-18 11:24N 43°48' E 023°03'3 4.8
2017-Nov-18 10:51N 43°48' E 023°07'3 4.6
2017-Nov-18 10:17N 43°49' E 023°10'2 5.1
2017-Nov-18 09:59N 43°50' E 023°12'2 5.0
2017-Nov-18 09:30N 43°51' E 023°15'3 5.0
2017-Nov-18 08:58N 43°51' E 023°19'  

Dump ship's entire track history